Time;durP1;ratioP1;P1;durP2;ratioP2;P2;SDS_P1;SDS_P2;PMS_P1;PMS_P2;Temp;Humidity;BMP_temperature;BMP_pressure;BME280_temperature;BME280_humidity;BME280_pressure;Samples;Min_cycle;Max_cycle;Signal;HPM_P1;HPM_P2
2022/09/25 00:00:32;;;;;;;666.75;597.80;;;15.80;99.90;;;;;;5046986;28;21016;-78
2022/09/25 00:03:00;;;;;;;677.42;607.58;;;15.80;99.90;;;;;;5045662;28;20217;-77
2022/09/25 00:05:27;;;;;;;667.95;601.88;;;15.80;99.90;;;;;;5044149;28;20191;-75
2022/09/25 00:07:55;;;;;;;695.17;629.22;;;15.80;99.90;;;;;;5047396;28;20199;-75
2022/09/25 00:10:23;;;;;;;669.72;605.72;;;15.80;99.90;;;;;;5047890;28;20649;-76
2022/09/25 00:12:50;;;;;;;650.25;587.55;;;15.80;99.90;;;;;;5049568;28;20195;-75
2022/09/25 00:15:17;;;;;;;683.45;620.20;;;15.80;99.90;;;;;;5043044;28;20214;-75
2022/09/25 00:17:43;;;;;;;635.58;574.90;;;15.80;99.90;;;;;;5040284;28;20219;-75
2022/09/25 00:20:11;;;;;;;648.40;588.60;;;15.80;99.90;;;;;;5046175;28;20201;-78
2022/09/25 00:22:38;;;;;;;671.70;611.17;;;15.80;99.90;;;;;;5041730;28;20202;-75
2022/09/25 00:25:05;;;;;;;632.63;573.95;;;15.80;99.90;;;;;;5042254;28;21021;-75
2022/09/25 00:27:32;;;;;;;655.67;596.28;;;15.80;99.90;;;;;;5048993;28;20203;-75
2022/09/25 00:29:59;;;;;;;638.17;579.20;;;15.80;99.90;;;;;;5043167;28;20191;-78
2022/09/25 00:32:26;;;;;;;647.53;587.55;;;15.80;99.90;;;;;;5042145;28;20288;-76
2022/09/25 00:34:53;;;;;;;663.35;602.47;;;15.80;99.90;;;;;;5044090;28;20201;-76
2022/09/25 00:37:21;;;;;;;659.00;597.35;;;15.80;99.90;;;;;;5050056;28;20197;-76
2022/09/25 00:39:48;;;;;;;639.05;578.47;;;15.70;99.90;;;;;;5048148;28;20194;-76
2022/09/25 00:42:19;;;;;;;651.38;589.65;;;15.70;99.90;;;;;;5048828;28;20190;-77
2022/09/25 00:44:59;;;;;;;651.92;589.10;;;15.70;99.90;;;;;;5046317;28;20198;-78
2022/09/25 00:47:42;;;;;;;630.42;571.17;;;15.70;99.90;;;;;;5044325;28;20191;-76
2022/09/25 00:50:22;;;;;;;641.28;582.53;;;15.70;99.90;;;;;;5042636;28;20205;-75
2022/09/25 00:52:52;;;;;;;607.45;550.15;;;15.70;99.90;;;;;;5043955;28;20190;-78
2022/09/25 00:55:21;;;;;;;662.88;604.55;;;15.70;99.90;;;;;;5042476;28;20316;-76
2022/09/25 00:57:52;;;;;;;622.47;565.03;;;15.70;99.90;;;;;;5050526;28;20347;-76
2022/09/25 01:00:19;;;;;;;634.88;577.47;;;15.70;99.90;;;;;;5051906;28;20198;-75
2022/09/25 01:02:51;;;;;;;628.88;571.78;;;15.70;99.90;;;;;;5046000;28;20680;-76
2022/09/25 01:05:21;;;;;;;631.13;573.90;;;15.70;99.90;;;;;;5043517;28;20202;-77
2022/09/25 01:07:51;;;;;;;611.13;555.40;;;15.70;99.90;;;;;;5052156;28;20191;-77
2022/09/25 01:10:20;;;;;;;624.13;567.95;;;15.70;99.90;;;;;;5046955;28;20218;-76
2022/09/25 01:12:48;;;;;;;619.13;562.90;;;15.70;99.90;;;;;;5052166;28;20590;-75
2022/09/25 01:15:18;;;;;;;646.00;588.47;;;15.70;99.90;;;;;;5048715;28;20193;-76
2022/09/25 01:17:56;;;;;;;630.03;573.75;;;15.70;99.90;;;;;;5047889;28;20214;-75
2022/09/25 01:20:36;;;;;;;642.67;585.92;;;15.60;99.90;;;;;;5049665;28;20276;-76
2022/09/25 01:23:20;;;;;;;617.05;560.97;;;15.60;99.90;;;;;;5050700;28;20217;-76
2022/09/25 01:26:04;;;;;;;647.70;590.45;;;15.70;99.90;;;;;;5046274;28;20202;-77
2022/09/25 01:28:55;;;;;;;619.15;562.80;;;15.70;99.90;;;;;;5048895;28;20617;-76
2022/09/25 01:31:27;;;;;;;620.55;563.35;;;15.70;99.90;;;;;;5045653;28;20659;-76
2022/09/25 01:34:00;;;;;;;605.22;549.67;;;15.60;99.90;;;;;;5051311;28;20203;-78
2022/09/25 01:36:29;;;;;;;632.42;575.13;;;15.60;99.90;;;;;;5048112;28;20199;-76
2022/09/25 01:39:02;;;;;;;629.53;572.67;;;15.60;99.90;;;;;;5044624;28;20232;-78
2022/09/25 01:41:37;;;;;;;629.88;572.67;;;15.60;99.90;;;;;;5050633;28;20198;-75
2022/09/25 01:44:12;;;;;;;622.28;564.90;;;15.60;99.90;;;;;;5050071;28;20198;-76
2022/09/25 01:46:43;;;;;;;636.20;579.03;;;15.60;99.90;;;;;;5044247;28;20235;-76
2022/09/25 01:49:16;;;;;;;634.58;577.08;;;15.60;99.90;;;;;;5048651;28;20203;-78
2022/09/25 01:51:47;;;;;;;615.75;559.17;;;15.60;99.90;;;;;;5045526;28;20234;-75
2022/09/25 01:54:18;;;;;;;644.97;587.10;;;15.60;99.90;;;;;;5047884;28;20289;-78
2022/09/25 01:56:51;;;;;;;629.25;571.40;;;15.60;99.90;;;;;;5051728;28;20226;-75
2022/09/25 01:59:27;;;;;;;656.05;597.10;;;15.60;99.90;;;;;;5041760;28;20669;-76
2022/09/25 02:01:56;;;;;;;626.47;568.53;;;15.60;99.90;;;;;;5049448;28;20201;-76
2022/09/25 02:04:28;;;;;;;636.72;578.22;;;15.60;99.90;;;;;;5040058;28;20555;-78
2022/09/25 02:07:00;;;;;;;622.03;564.53;;;15.60;99.90;;;;;;5051977;28;20358;-76
2022/09/25 02:09:32;;;;;;;615.35;557.40;;;15.60;99.90;;;;;;5046193;28;20199;-74
2022/09/25 02:12:07;;;;;;;617.58;559.42;;;15.60;99.90;;;;;;5049550;28;20280;-76
2022/09/25 02:14:42;;;;;;;630.67;573.38;;;15.60;99.90;;;;;;5046512;28;20208;-76
2022/09/25 02:17:12;;;;;;;623.90;566.80;;;15.50;99.90;;;;;;5049239;28;20597;-77
2022/09/25 02:22:29;;;;;;;631.97;574.28;;;15.60;99.90;;;;;;5049098;28;20684;-75
2022/09/25 02:25:00;;;;;;;616.08;558.90;;;15.50;99.90;;;;;;5048589;28;20204;-75
2022/09/25 02:27:28;;;;;;;613.35;556.03;;;15.50;99.90;;;;;;5051507;28;20609;-75
2022/09/25 02:29:57;;;;;;;628.60;570.28;;;15.50;99.90;;;;;;5044955;28;20194;-76
2022/09/25 02:32:29;;;;;;;630.47;571.63;;;15.50;99.90;;;;;;5045730;28;20738;-75
2022/09/25 02:34:58;;;;;;;607.95;549.85;;;15.50;99.90;;;;;;5048227;28;20201;-76
2022/09/25 02:37:26;;;;;;;614.25;556.20;;;15.50;99.90;;;;;;5048161;28;20295;-76
2022/09/25 02:39:57;;;;;;;611.08;552.58;;;15.50;99.90;;;;;;5046107;28;20332;-77
2022/09/25 02:42:31;;;;;;;639.40;580.20;;;15.50;99.90;;;;;;5047454;28;20226;-76
2022/09/25 02:45:15;;;;;;;628.28;569.92;;;15.50;99.90;;;;;;5044605;28;20648;-75
2022/09/25 02:47:55;;;;;;;608.60;550.75;;;15.50;99.90;;;;;;5046609;28;20204;-76
2022/09/25 02:50:26;;;;;;;613.70;554.92;;;15.50;99.90;;;;;;5050152;28;20198;-76
2022/09/25 02:53:02;;;;;;;620.78;561.80;;;15.50;99.90;;;;;;5049543;28;20252;-76
2022/09/25 02:55:37;;;;;;;614.72;555.53;;;15.50;99.90;;;;;;5047902;28;20252;-77
2022/09/25 02:58:10;;;;;;;610.47;553.85;;;15.50;99.90;;;;;;5052451;28;20251;-79
2022/09/25 03:00:40;;;;;;;615.75;557.90;;;15.50;99.90;;;;;;5045446;28;20198;-79
2022/09/25 03:03:09;;;;;;;618.03;560.38;;;15.50;99.90;;;;;;5048065;28;20200;-77
2022/09/25 03:05:37;;;;;;;619.15;562.00;;;15.40;99.90;;;;;;5046107;28;20199;-77
2022/09/25 03:10:58;;;;;;;610.78;553.38;;;15.50;99.90;;;;;;5009402;28;20203;-80
2022/09/25 03:13:30;;;;;;;598.53;541.67;;;15.40;99.90;;;;;;5049619;28;20586;-75
2022/09/25 03:16:01;;;;;;;616.25;558.90;;;15.40;99.90;;;;;;5044966;28;20606;-76
2022/09/25 03:18:29;;;;;;;614.05;556.55;;;15.40;99.90;;;;;;5048401;28;20198;-75
2022/09/25 03:20:56;;;;;;;609.17;551.97;;;15.40;99.90;;;;;;5046849;28;20207;-76
2022/09/25 03:23:23;;;;;;;619.38;561.90;;;15.40;99.90;;;;;;5051200;28;20663;-76
2022/09/25 03:25:50;;;;;;;626.97;568.92;;;15.40;99.90;;;;;;5046845;28;20202;-76
2022/09/25 03:28:17;;;;;;;611.60;553.88;;;15.40;99.90;;;;;;5047941;28;20351;-75
2022/09/25 03:30:44;;;;;;;610.25;552.72;;;15.40;99.90;;;;;;5039775;28;20202;-76
2022/09/25 03:33:13;;;;;;;622.42;565.03;;;15.40;99.90;;;;;;5042513;28;20221;-76
2022/09/25 03:35:40;;;;;;;606.03;549.03;;;15.40;99.90;;;;;;5045325;28;20348;-76
2022/09/25 03:38:09;;;;;;;620.15;562.83;;;15.40;99.90;;;;;;5050247;28;20225;-77
2022/09/25 03:40:36;;;;;;;639.05;581.67;;;15.40;99.90;;;;;;5045653;28;20206;-75
2022/09/25 03:43:02;;;;;;;612.55;556.08;;;15.40;99.90;;;;;;5050050;28;20262;-77
2022/09/25 03:45:29;;;;;;;619.65;562.58;;;15.40;99.90;;;;;;5043167;28;20198;-76
2022/09/25 03:47:56;;;;;;;643.97;586.03;;;15.30;99.90;;;;;;5044929;28;20263;-75
2022/09/25 03:50:24;;;;;;;618.00;561.08;;;15.30;99.90;;;;;;5044726;28;20198;-77
2022/09/25 03:52:51;;;;;;;622.72;566.75;;;15.30;99.90;;;;;;5049001;28;20198;-77
2022/09/25 03:55:18;;;;;;;602.63;547.28;;;15.30;99.90;;;;;;5048456;28;20197;-76
2022/09/25 03:57:45;;;;;;;610.00;555.20;;;15.30;99.90;;;;;;5045538;28;20232;-75
2022/09/25 04:00:13;;;;;;;617.28;561.53;;;15.30;99.90;;;;;;5046593;28;20209;-76
2022/09/25 04:02:40;;;;;;;602.67;547.70;;;15.30;99.90;;;;;;5042937;28;20532;-76
2022/09/25 04:05:08;;;;;;;644.63;589.08;;;15.30;99.90;;;;;;5041155;28;20676;-76
2022/09/25 04:07:36;;;;;;;616.20;560.90;;;15.30;99.90;;;;;;5047343;28;20212;-75
2022/09/25 04:10:03;;;;;;;597.72;542.75;;;15.30;99.90;;;;;;5046997;28;20210;-75
2022/09/25 04:12:30;;;;;;;599.92;544.85;;;15.30;99.90;;;;;;5049866;28;20206;-74
2022/09/25 04:14:56;;;;;;;605.40;550.15;;;15.30;99.90;;;;;;5048334;28;20206;-74
2022/09/25 04:17:23;;;;;;;604.45;549.08;;;15.30;99.90;;;;;;5042351;28;20271;-77
2022/09/25 04:19:51;;;;;;;615.03;559.65;;;15.30;99.90;;;;;;5048660;28;20209;-75
2022/09/25 04:22:18;;;;;;;604.05;548.45;;;15.30;99.90;;;;;;5046727;28;20213;-74
2022/09/25 04:24:48;;;;;;;592.78;538.20;;;15.30;99.90;;;;;;5045067;28;20574;-75
2022/09/25 04:27:17;;;;;;;593.72;538.60;;;15.30;99.90;;;;;;5047977;28;20205;-77
2022/09/25 04:29:45;;;;;;;600.25;544.58;;;15.30;99.90;;;;;;5045664;28;20283;-76
2022/09/25 04:35:01;;;;;;;595.45;539.28;;;15.30;99.90;;;;;;5007677;28;20338;-75
2022/09/25 04:37:28;;;;;;;598.13;541.72;;;15.20;99.90;;;;;;5041573;28;20227;-77
2022/09/25 04:39:57;;;;;;;599.28;543.25;;;15.20;99.90;;;;;;5047005;28;20255;-74
2022/09/25 04:42:24;;;;;;;615.65;558.53;;;15.20;99.90;;;;;;5046068;28;20468;-75
2022/09/25 04:44:53;;;;;;;609.88;552.90;;;15.20;99.90;;;;;;5046436;28;20205;-75
2022/09/25 04:47:20;;;;;;;604.15;547.17;;;15.20;99.90;;;;;;5038491;28;20323;-76
2022/09/25 04:49:47;;;;;;;597.67;541.17;;;15.20;99.90;;;;;;5046607;28;20193;-75
2022/09/25 04:52:14;;;;;;;617.88;561.10;;;15.20;99.90;;;;;;5048564;28;20210;-76
2022/09/25 04:54:42;;;;;;;635.45;577.45;;;15.20;99.90;;;;;;5042089;28;20205;-78
2022/09/25 04:57:14;;;;;;;607.20;550.45;;;15.20;99.90;;;;;;5049028;28;20250;-77
2022/09/25 04:59:41;;;;;;;626.03;568.28;;;15.20;99.90;;;;;;5044500;28;20597;-77
2022/09/25 05:02:08;;;;;;;594.30;537.65;;;15.20;99.90;;;;;;5044373;28;20194;-79
2022/09/25 05:04:35;;;;;;;625.58;567.55;;;15.20;99.90;;;;;;5040643;28;20673;-77
2022/09/25 05:07:01;;;;;;;589.83;533.47;;;15.10;99.90;;;;;;5046052;28;20202;-77
2022/09/25 05:09:28;;;;;;;630.25;572.35;;;15.10;99.90;;;;;;5047435;28;20201;-78
2022/09/25 05:11:55;;;;;;;593.78;536.63;;;15.10;99.90;;;;;;5042629;28;20252;-77
2022/09/25 05:14:23;;;;;;;602.45;544.75;;;15.10;99.90;;;;;;5045902;28;20190;-76
2022/09/25 05:16:50;;;;;;;598.25;540.78;;;15.10;99.90;;;;;;5042752;28;20212;-76
2022/09/25 05:19:17;;;;;;;616.65;558.35;;;15.10;99.90;;;;;;5046814;28;20211;-76
2022/09/25 05:21:44;;;;;;;603.58;545.28;;;15.10;99.90;;;;;;5043030;28;20457;-75
2022/09/25 05:24:12;;;;;;;600.80;543.10;;;15.10;99.90;;;;;;5045824;28;20206;-75
2022/09/25 05:26:40;;;;;;;603.75;545.53;;;15.10;99.90;;;;;;5044566;28;20209;-75
2022/09/25 05:29:07;;;;;;;614.90;555.50;;;15.10;99.90;;;;;;5047682;28;20767;-78
2022/09/25 05:31:35;;;;;;;609.40;549.83;;;15.00;99.90;;;;;;5034528;28;20206;-76
2022/09/25 05:34:02;;;;;;;608.88;547.45;;;15.10;99.90;;;;;;5049327;28;20216;-75
2022/09/25 05:36:29;;;;;;;601.58;544.17;;;15.10;99.90;;;;;;5043826;28;20189;-76
2022/09/25 05:38:56;;;;;;;592.47;535.42;;;15.10;99.90;;;;;;5044194;28;20222;-77
2022/09/25 05:41:23;;;;;;;593.90;537.97;;;15.00;99.90;;;;;;5047042;28;20198;-78
2022/09/25 05:43:50;;;;;;;609.03;552.25;;;15.00;99.90;;;;;;5045856;28;20284;-78
2022/09/25 05:46:16;;;;;;;601.85;545.03;;;15.00;99.90;;;;;;5044459;28;20200;-79
2022/09/25 05:48:44;;;;;;;609.47;552.42;;;15.00;99.90;;;;;;5045941;28;20199;-77
2022/09/25 05:51:11;;;;;;;600.33;543.08;;;15.00;99.90;;;;;;5046965;28;20676;-77
2022/09/25 05:53:38;;;;;;;600.72;543.58;;;15.00;99.90;;;;;;5048419;28;20251;-76
2022/09/25 05:56:05;;;;;;;588.58;531.70;;;15.00;99.90;;;;;;5046058;28;20196;-76
2022/09/25 05:58:34;;;;;;;581.97;525.10;;;15.00;99.90;;;;;;5050888;28;20225;-76
2022/09/25 06:01:02;;;;;;;579.40;521.58;;;15.00;99.90;;;;;;5045745;28;20203;-79
2022/09/25 06:03:29;;;;;;;592.83;534.42;;;15.00;99.90;;;;;;5049059;28;20296;-78
2022/09/25 06:05:57;;;;;;;586.35;528.13;;;15.00;99.90;;;;;;5049991;28;20562;-76
2022/09/25 06:08:24;;;;;;;629.92;569.90;;;15.00;99.90;;;;;;5050487;28;20201;-76
2022/09/25 06:10:56;;;;;;;604.10;545.72;;;15.00;99.90;;;;;;5043504;28;20204;-78
2022/09/25 06:13:23;;;;;;;599.50;540.90;;;15.00;99.90;;;;;;5050096;28;20199;-78
2022/09/25 06:15:51;;;;;;;599.97;541.00;;;15.00;99.90;;;;;;5048541;28;20265;-79
2022/09/25 06:18:18;;;;;;;587.78;529.53;;;15.00;99.90;;;;;;5048485;28;20222;-76
2022/09/25 06:20:45;;;;;;;597.70;539.03;;;14.90;99.90;;;;;;5048911;28;20208;-79
2022/09/25 06:23:13;;;;;;;595.30;536.75;;;14.90;99.90;;;;;;5053408;28;20213;-75
2022/09/25 06:25:40;;;;;;;598.53;539.38;;;15.00;99.90;;;;;;5047739;28;20247;-77
2022/09/25 06:28:08;;;;;;;596.22;537.45;;;15.00;99.90;;;;;;5052777;28;20276;-77
2022/09/25 06:30:37;;;;;;;593.03;535.33;;;15.00;99.90;;;;;;5051120;28;20601;-75
2022/09/25 06:33:06;;;;;;;591.58;534.03;;;15.10;99.90;;;;;;5046586;28;20593;-78
2022/09/25 06:35:34;;;;;;;601.22;543.63;;;15.30;99.90;;;;;;5050670;28;20677;-76
2022/09/25 06:38:02;;;;;;;600.10;542.17;;;15.40;99.90;;;;;;5050373;28;20254;-76
2022/09/25 06:40:31;;;;;;;616.53;557.92;;;15.50;99.90;;;;;;5046091;28;20258;-76
2022/09/25 06:42:58;;;;;;;629.78;571.15;;;15.60;99.90;;;;;;5040900;28;20194;-79
2022/09/25 06:45:26;;;;;;;650.42;590.38;;;15.80;99.90;;;;;;5043199;28;20651;-79
2022/09/25 06:47:56;;;;;;;648.13;588.42;;;15.90;99.90;;;;;;5044556;28;20230;-78
2022/09/25 06:50:24;;;;;;;656.30;596.92;;;16.00;99.90;;;;;;5044567;28;20213;-76
2022/09/25 06:52:51;;;;;;;656.05;596.38;;;16.00;99.90;;;;;;5042491;28;20281;-77
2022/09/25 06:55:18;;;;;;;657.50;597.58;;;16.10;99.90;;;;;;5049335;28;20204;-78
2022/09/25 06:57:47;;;;;;;655.83;596.13;;;16.10;99.90;;;;;;5046455;28;20582;-78
2022/09/25 07:00:14;;;;;;;658.13;598.47;;;16.10;99.90;;;;;;5046479;28;20204;-76
2022/09/25 07:05:25;;;;;;;653.85;594.42;;;16.20;99.90;;;;;;5042261;28;20764;-77
2022/09/25 07:07:51;;;;;;;667.22;607.03;;;16.30;99.90;;;;;;5044622;28;20608;-76
2022/09/25 07:10:18;;;;;;;678.15;617.33;;;16.40;99.90;;;;;;5053167;28;20194;-78
2022/09/25 07:12:46;;;;;;;672.47;612.28;;;16.50;99.90;;;;;;5054410;28;20233;-77
2022/09/25 07:15:14;;;;;;;680.67;621.97;;;16.60;99.90;;;;;;5041925;28;20229;-78
2022/09/25 07:17:42;;;;;;;670.92;612.97;;;16.60;99.90;;;;;;5042222;28;20223;-79
2022/09/25 07:20:11;;;;;;;682.22;624.38;;;16.60;99.90;;;;;;5047649;28;20227;-76
2022/09/25 07:22:38;;;;;;;683.30;625.00;;;16.60;99.90;;;;;;5053943;28;20608;-76
2022/09/25 07:25:06;;;;;;;699.17;640.33;;;16.60;99.90;;;;;;5043116;28;20195;-76
2022/09/25 07:27:33;;;;;;;687.28;628.90;;;16.60;99.90;;;;;;5050502;28;20592;-76
2022/09/25 07:30:02;;;;;;;672.22;614.03;;;16.60;99.90;;;;;;5051498;28;20615;-76
2022/09/25 07:32:30;;;;;;;683.72;625.92;;;16.60;99.90;;;;;;5044202;28;20288;-77
2022/09/25 07:34:57;;;;;;;680.53;622.70;;;16.60;99.90;;;;;;5046166;28;20550;-75
2022/09/25 07:37:24;;;;;;;701.95;643.83;;;16.60;99.90;;;;;;5055013;28;20218;-77
2022/09/25 07:39:51;;;;;;;677.05;619.35;;;16.60;99.90;;;;;;5053368;28;20186;-77
2022/09/25 07:42:18;;;;;;;679.83;621.72;;;16.70;99.90;;;;;;5058786;28;20197;-77
2022/09/25 07:44:44;;;;;;;698.05;639.17;;;16.80;99.90;;;;;;5057416;28;20282;-76
2022/09/25 07:47:14;;;;;;;722.13;662.83;;;16.90;99.90;;;;;;5048332;28;20285;-77
2022/09/25 07:49:40;;;;;;;710.50;651.95;;;17.00;99.90;;;;;;5054268;28;20210;-78
2022/09/25 07:52:07;;;;;;;712.80;655.58;;;17.00;99.90;;;;;;5057119;28;20649;-77
2022/09/25 07:54:34;;;;;;;721.97;664.10;;;17.00;99.90;;;;;;5055541;28;20195;-76
2022/09/25 07:57:01;;;;;;;686.78;630.30;;;16.90;99.90;;;;;;5046188;28;20203;-77
2022/09/25 07:59:28;;;;;;;700.10;642.83;;;16.80;99.90;;;;;;5049323;28;20218;-76
2022/09/25 08:01:56;;;;;;;706.83;649.25;;;16.80;99.90;;;;;;5048546;28;20236;-77
2022/09/25 08:04:25;;;;;;;704.05;646.83;;;17.00;99.90;;;;;;5048865;28;20645;-75
2022/09/25 08:06:51;;;;;;;734.35;676.00;;;17.10;99.90;;;;;;5043382;28;20191;-79
2022/09/25 08:09:18;;;;;;;742.03;683.78;;;17.20;99.90;;;;;;5050528;28;20435;-76
2022/09/25 08:11:45;;;;;;;736.63;678.35;;;17.30;99.90;;;;;;5050443;28;20593;-76
2022/09/25 08:14:14;;;;;;;740.35;680.95;;;17.40;99.90;;;;;;5045011;28;20253;-76
2022/09/25 08:16:41;;;;;;;745.53;685.95;;;17.40;99.90;;;;;;5044589;28;20761;-78
2022/09/25 08:19:08;;;;;;;756.85;697.50;;;17.50;99.90;;;;;;5049332;28;20242;-79
2022/09/25 08:21:36;;;;;;;736.70;677.53;;;17.50;99.90;;;;;;5048328;28;20201;-87
2022/09/25 08:24:03;;;;;;;754.25;693.88;;;17.40;99.90;;;;;;5049610;28;20230;-77
2022/09/25 08:26:30;;;;;;;740.33;679.85;;;17.30;99.90;;;;;;5050487;28;20257;-75
2022/09/25 08:28:59;;;;;;;730.72;669.08;;;17.20;99.90;;;;;;5049676;28;20297;-79
2022/09/25 08:31:26;;;;;;;739.22;677.67;;;17.10;99.90;;;;;;5042762;28;20203;-78
2022/09/25 08:33:54;;;;;;;738.88;676.00;;;17.00;99.90;;;;;;5043336;28;20267;-78
2022/09/25 08:36:22;;;;;;;741.53;677.03;;;17.10;99.90;;;;;;5045392;28;20209;-77
2022/09/25 08:38:54;;;;;;;753.75;688.95;;;17.10;99.90;;;;;;5048537;28;20228;-78
2022/09/25 08:41:25;;;;;;;760.78;694.20;;;17.20;99.90;;;;;;5048599;28;20198;-78
2022/09/25 08:43:59;;;;;;;775.85;710.70;;;17.40;99.90;;;;;;5039517;28;20670;-78
2022/09/25 08:49:25;;;;;;;760.85;695.75;;;17.50;99.90;;;;;;5048070;28;20306;-78
2022/09/25 08:51:56;;;;;;;765.33;700.05;;;17.60;99.90;;;;;;5045983;28;20199;-78
2022/09/25 08:54:26;;;;;;;755.15;689.30;;;17.50;99.90;;;;;;5046728;28;20194;-78
2022/09/25 08:56:56;;;;;;;758.17;695.15;;;17.50;99.90;;;;;;5047735;28;20198;-78
2022/09/25 08:59:27;;;;;;;751.47;688.40;;;17.40;99.90;;;;;;5047179;28;20222;-78
2022/09/25 09:01:58;;;;;;;762.30;697.30;;;17.40;99.90;;;;;;5044211;28;20461;-79
2022/09/25 09:04:30;;;;;;;766.92;701.95;;;17.40;99.90;;;;;;5041896;28;20202;-78
2022/09/25 09:07:05;;;;;;;757.75;693.15;;;17.40;99.90;;;;;;5045601;28;20198;-78
2022/09/25 09:09:39;;;;;;;754.67;690.53;;;17.50;99.90;;;;;;5047366;28;20210;-78
2022/09/25 09:12:11;;;;;;;772.88;709.08;;;17.50;99.90;;;;;;5044110;28;20202;-78
2022/09/25 09:14:44;;;;;;;781.70;718.00;;;17.50;99.90;;;;;;5040521;28;20202;-77
2022/09/25 09:17:17;;;;;;;787.03;722.17;;;17.50;99.90;;;;;;5038852;28;20225;-79
2022/09/25 09:19:48;;;;;;;770.88;706.65;;;17.60;99.90;;;;;;5051322;28;20243;-77
2022/09/25 09:22:18;;;;;;;772.75;709.55;;;17.60;99.90;;;;;;5048380;28;20191;-78
2022/09/25 09:24:55;;;;;;;779.25;716.38;;;17.70;99.90;;;;;;5047133;28;20253;-78
2022/09/25 09:27:48;;;;;;;767.40;704.47;;;17.70;99.90;;;;;;5050975;28;20191;-78
2022/09/25 09:30:19;;;;;;;781.80;720.30;;;17.80;99.90;;;;;;5045980;28;20654;-79
2022/09/25 09:32:56;;;;;;;772.08;711.22;;;17.80;99.90;;;;;;5045020;28;20593;-77
2022/09/25 09:35:31;;;;;;;767.60;706.90;;;17.80;99.90;;;;;;5049030;28;20195;-78
2022/09/25 09:38:09;;;;;;;777.33;716.35;;;17.80;99.90;;;;;;5048682;28;20589;-79
2022/09/25 09:41:01;;;;;;;791.50;730.42;;;17.80;99.90;;;;;;5047348;28;20793;-79
2022/09/25 09:43:42;;;;;;;757.05;696.78;;;17.80;99.90;;;;;;5050941;28;20195;-78
2022/09/25 09:46:16;;;;;;;777.78;716.42;;;17.70;99.90;;;;;;5045298;28;20196;-78
2022/09/25 09:48:52;;;;;;;752.42;691.53;;;17.70;99.90;;;;;;5044903;28;20190;-78
2022/09/25 09:51:22;;;;;;;736.78;676.78;;;17.60;99.90;;;;;;5048622;28;20530;-78
2022/09/25 09:53:53;;;;;;;751.67;690.80;;;17.50;99.90;;;;;;5048705;28;20612;-78
2022/09/25 09:56:25;;;;;;;754.38;692.33;;;17.40;99.90;;;;;;5048717;28;20214;-78
2022/09/25 09:58:56;;;;;;;756.35;694.20;;;17.40;99.90;;;;;;5045506;28;20227;-78
2022/09/25 10:01:26;;;;;;;775.03;711.92;;;17.40;99.90;;;;;;5042934;28;20217;-78
2022/09/25 10:04:01;;;;;;;755.50;693.00;;;17.40;99.90;;;;;;5048168;28;20225;-78
2022/09/25 10:06:31;;;;;;;722.45;660.80;;;17.40;99.90;;;;;;5048111;28;20219;-78
2022/09/25 10:08:57;;;;;;;765.63;702.58;;;17.40;99.90;;;;;;5045813;28;20203;-79
2022/09/25 10:11:26;;;;;;;752.25;690.17;;;17.40;99.90;;;;;;5045729;28;20191;-78
2022/09/25 10:13:54;;;;;;;741.83;679.42;;;17.40;99.90;;;;;;5047948;28;20198;-79
2022/09/25 10:16:23;;;;;;;762.22;698.80;;;17.40;99.90;;;;;;5045464;28;20265;-78
2022/09/25 10:18:57;;;;;;;752.38;689.22;;;17.40;99.90;;;;;;5047802;28;20222;-79
2022/09/25 10:21:26;;;;;;;767.80;703.42;;;17.40;99.90;;;;;;5047123;28;20198;-80
2022/09/25 10:23:57;;;;;;;747.75;685.00;;;17.40;99.90;;;;;;5047683;28;20273;-78
2022/09/25 10:26:28;;;;;;;762.22;699.13;;;17.40;99.90;;;;;;5047956;28;20554;-74
2022/09/25 10:28:56;;;;;;;755.63;692.83;;;17.40;99.90;;;;;;5044574;28;20650;-75
2022/09/25 10:31:26;;;;;;;769.47;705.50;;;17.50;99.90;;;;;;5036401;28;20294;-74
2022/09/25 10:34:00;;;;;;;762.10;701.50;;;17.50;99.90;;;;;;5048662;28;20617;-75
2022/09/25 10:36:39;;;;;;;758.67;698.42;;;17.50;99.90;;;;;;5050958;28;20199;-77
2022/09/25 10:39:28;;;;;;;755.15;694.75;;;17.50;99.90;;;;;;5048899;28;20223;-75
2022/09/25 10:41:57;;;;;;;730.13;670.25;;;17.50;99.90;;;;;;5045197;28;20234;-74
2022/09/25 10:44:32;;;;;;;741.53;681.90;;;17.50;99.90;;;;;;5045510;28;20191;-78
2022/09/25 10:50:17;;;;;;;722.53;663.25;;;17.50;99.90;;;;;;5047354;28;20218;-76
2022/09/25 10:52:50;;;;;;;727.70;668.20;;;17.50;99.90;;;;;;5044909;28;20195;-78
2022/09/25 10:55:24;;;;;;;733.22;673.70;;;17.50;99.90;;;;;;5043047;28;20251;-76
2022/09/25 10:58:03;;;;;;;735.67;675.67;;;17.50;99.90;;;;;;5050267;28;20286;-77
2022/09/25 11:00:32;;;;;;;753.97;693.05;;;17.40;99.90;;;;;;5053693;28;20673;-77
2022/09/25 11:03:02;;;;;;;739.60;678.53;;;17.40;99.90;;;;;;5041956;28;20191;-79
2022/09/25 11:05:31;;;;;;;733.55;673.17;;;17.40;99.90;;;;;;5044950;28;20270;-79
2022/09/25 11:08:01;;;;;;;745.00;684.17;;;17.40;99.90;;;;;;5049414;28;20203;-79
2022/09/25 11:10:30;;;;;;;748.40;687.92;;;17.40;99.90;;;;;;5046976;28;20205;-74
2022/09/25 11:12:58;;;;;;;737.65;677.17;;;17.40;99.90;;;;;;5048280;28;20211;-77
2022/09/25 11:15:27;;;;;;;761.42;700.13;;;17.40;99.90;;;;;;5047087;28;20363;-76
2022/09/25 11:17:55;;;;;;;744.92;683.53;;;17.40;99.90;;;;;;5044079;28;20240;-77
2022/09/25 11:20:28;;;;;;;741.50;680.00;;;17.50;99.90;;;;;;5045576;28;20310;-77
2022/09/25 11:23:05;;;;;;;728.70;668.72;;;17.50;99.90;;;;;;5045384;28;20203;-78
2022/09/25 11:25:41;;;;;;;735.15;674.72;;;17.50;99.90;;;;;;5046637;28;20248;-75
2022/09/25 11:28:17;;;;;;;750.13;689.38;;;17.50;99.90;;;;;;5038083;28;20277;-76
2022/09/25 11:30:49;;;;;;;736.92;676.40;;;17.50;99.90;;;;;;5046638;28;20226;-75
2022/09/25 11:33:24;;;;;;;731.90;672.35;;;17.50;99.90;;;;;;5041557;28;20257;-74
2022/09/25 11:35:54;;;;;;;737.15;676.97;;;17.40;99.90;;;;;;5041818;28;20199;-75
2022/09/25 11:41:21;;;;;;;738.28;678.78;;;17.40;99.90;;;;;;5042602;28;20884;-75
2022/09/25 11:43:57;;;;;;;727.50;668.40;;;17.40;99.90;;;;;;5043399;28;20581;-76
2022/09/25 11:46:34;;;;;;;721.20;662.50;;;17.40;99.90;;;;;;5039698;28;20278;-76
2022/09/25 11:49:09;;;;;;;724.15;664.55;;;17.40;99.90;;;;;;5045682;28;20195;-72
2022/09/25 11:52:05;;;;;;;734.88;674.67;;;17.40;99.90;;;;;;5045632;28;20605;-74
2022/09/25 11:54:42;;;;;;;733.90;674.03;;;17.30;99.90;;;;;;5009688;28;20288;-74
2022/09/25 11:57:12;;;;;;;723.80;663.63;;;17.30;99.90;;;;;;5045142;28;20201;-77
2022/09/25 12:00:05;;;;;;;713.70;654.28;;;17.30;99.90;;;;;;5038200;28;20222;-76
2022/09/25 12:02:41;;;;;;;727.53;666.92;;;17.30;99.90;;;;;;5035752;28;20244;-77
2022/09/25 12:05:32;;;;;;;703.78;643.97;;;17.30;99.90;;;;;;5043557;28;20205;-75
2022/09/25 12:08:23;;;;;;;715.38;654.72;;;17.30;99.90;;;;;;5046523;28;20659;-76
2022/09/25 12:11:00;;;;;;;718.45;657.47;;;17.30;99.90;;;;;;5035321;28;20235;-75
2022/09/25 12:13:40;;;;;;;713.08;651.45;;;17.30;99.90;;;;;;5046381;28;20187;-75
2022/09/25 12:16:18;;;;;;;730.53;668.30;;;17.20;99.90;;;;;;5044348;28;20211;-79
2022/09/25 12:18:59;;;;;;;731.47;669.08;;;17.20;99.90;;;;;;5047123;28;20282;-75
2022/09/25 12:21:33;;;;;;;737.97;675.58;;;17.20;99.90;;;;;;5048119;28;20191;-75
2022/09/25 12:24:06;;;;;;;724.33;661.85;;;17.20;99.90;;;;;;5047521;28;20201;-76
2022/09/25 12:26:40;;;;;;;713.85;651.53;;;17.20;99.90;;;;;;5047647;28;20244;-76
2022/09/25 12:29:18;;;;;;;735.85;672.35;;;17.20;99.90;;;;;;5048003;28;20593;-76
2022/09/25 12:31:55;;;;;;;738.38;673.88;;;17.20;99.90;;;;;;5046703;28;20209;-76
2022/09/25 12:34:32;;;;;;;738.05;672.47;;;17.20;99.90;;;;;;5043803;28;20213;-78
2022/09/25 12:37:07;;;;;;;734.55;669.72;;;17.20;99.90;;;;;;5039722;28;20199;-75
2022/09/25 12:39:40;;;;;;;741.08;676.33;;;17.20;99.90;;;;;;5040800;28;20353;-75
2022/09/25 12:42:15;;;;;;;745.25;679.30;;;17.20;99.90;;;;;;5044672;28;20221;-76
2022/09/25 12:44:49;;;;;;;735.53;669.00;;;17.20;99.90;;;;;;5045239;28;20281;-76